| time (UTC) | temp C | wind direction | speed KPH | gust KPH | rain 1hr cm | rain 24hr cm | rain mn cm | humidity % | barometer mb |
| 20260505011031 | 22 | 209 | 4.8 | 6.4 | 0.00 | 0.00 | 0.00 | 45 | 1009.1 |
| 20260505010028 | 23 | 200 | 4.8 | 6.4 | 0.00 | 0.00 | 0.00 | 44 | 1008.9 |
| 20260505005026 | 23 | 201 | 4.8 | 6.4 | 0.00 | 0.00 | 0.00 | 44 | 1008.8 |
| 20260505004026 | 23 | 230 | 3.2 | 9.7 | 0.00 | 0.00 | 0.00 | 43 | 1008.7 |
| 20260505003022 | 23 | 225 | 3.2 | 6.4 | 0.00 | 0.00 | 0.00 | 43 | 1008.8 |
| 20260505002021 | 23 | 227 | 6.4 | 11.3 | 0.00 | 0.00 | 0.00 | 42 | 1008.9 |
| 20260505001018 | 24 | 223 | 6.4 | 11.3 | 0.00 | 0.00 | 0.00 | 42 | 1008.9 |
| 20260505000036 | 24 | 218 | 6.4 | 11.3 | 0.00 | 0.00 | 0.00 | 41 | 1008.9 |
| 20260504235034 | 24 | 212 | 4.8 | 11.3 | 0.00 | 0.00 | 0.00 | 41 | 1008.9 |
| 20260504234052 | 25 | 217 | 4.8 | 11.3 | 0.00 | 0.00 | 0.00 | 40 | 1008.9 |
| 20260504233049 | 25 | 236 | 8.0 | 16.1 | 0.00 | 0.00 | 0.00 | 39 | 1008.9 |
| 20260504232047 | 25 | 207 | 6.4 | 11.3 | 0.00 | 0.00 | 0.00 | 38 | 1009.0 |
| 20260504231026 | 25 | 226 | 9.7 | 14.5 | 0.00 | 0.00 | 0.00 | 37 | 1009.0 |
| 20260504230022 | 25 | 220 | 8.0 | 12.9 | 0.00 | 0.00 | 0.00 | 38 | 1009.1 |
| 20260504225026 | 26 | 213 | 6.4 | 12.9 | 0.00 | 0.00 | 0.00 | 37 | 1009.0 |
| 20260504224037 | 26 | 221 | 6.4 | 9.7 | 0.00 | 0.00 | 0.00 | 37 | 1009.1 |
| 20260504223034 | 26 | 211 | 8.0 | 16.1 | 0.00 | 0.00 | 0.00 | 36 | 1009.1 |
| 20260504222033 | 26 | 241 | 6.4 | 12.9 | 0.00 | 0.00 | 0.00 | 35 | 1009.0 |
| 20260504221030 | 26 | 223 | 9.7 | 14.5 | 0.00 | 0.00 | 0.00 | 35 | 1009.1 |
| 20260504220028 | 26 | 230 | 9.7 | 24.1 | 0.00 | 0.00 | 0.00 | 36 | 1009.0 |
| 20260504215025 | 26 | 223 | 8.0 | 16.1 | 0.00 | 0.00 | 0.00 | 36 | 1009.2 |
| 20260504214025 | 26 | 228 | 9.7 | 20.9 | 0.00 | 0.00 | 0.00 | 35 | 1009.1 |
| 20260504213022 | 26 | 233 | 8.0 | 16.1 | 0.00 | 0.00 | 0.00 | 36 | 1009.1 |
| 20260504212019 | 26 | 228 | 8.0 | 22.5 | 0.00 | 0.00 | 0.00 | 36 | 1009.3 |
| 20260504211040 | 26 | 198 | 8.0 | 14.5 | 0.00 | 0.00 | 0.00 | 36 | 1009.4 |
| 20260504210035 | 26 | 228 | 8.0 | 17.7 | 0.00 | 0.00 | 0.00 | 36 | 1009.5 |
| 20260504205034 | 26 | 230 | 8.0 | 17.7 | 0.00 | 0.00 | 0.00 | 36 | 1009.5 |
| 20260504204112 | 26 | 231 | 9.7 | 16.1 | 0.00 | 0.00 | 0.00 | 36 | 1009.7 |
| 20260504203030 | 26 | 192 | 6.4 | 16.1 | 0.00 | 0.00 | 0.00 | 37 | 1009.9 |
| 20260504202026 | 26 | 216 | 4.8 | 9.7 | 0.00 | 0.00 | 0.00 | 36 | 1010.1 |
| 20260504201025 | 26 | 219 | 9.7 | 14.5 | 0.00 | 0.00 | 0.00 | 35 | 1010.3 |
| 20260504200024 | 26 | 195 | 8.0 | 17.7 | 0.00 | 0.00 | 0.00 | 37 | 1010.3 |
| 20260504195021 | 25 | 236 | 8.0 | 12.9 | 0.00 | 0.00 | 0.00 | 37 | 1010.5 |
| 20260504194018 | 26 | 229 | 8.0 | 14.5 | 0.00 | 0.00 | 0.00 | 37 | 1010.7 |
| 20260504193037 | 26 | 233 | 9.7 | 17.7 | 0.00 | 0.00 | 0.00 | 37 | 1010.8 |
| 20260504192032 | 26 | 199 | 8.0 | 14.5 | 0.00 | 0.00 | 0.00 | 37 | 1010.9 |
| 20260504191043 | 26 | 230 | 9.7 | 14.5 | 0.00 | 0.00 | 0.00 | 38 | 1010.9 |
| 20260504190029 | 26 | 230 | 6.4 | 14.5 | 0.00 | 0.00 | 0.00 | 37 | 1011.2 |
| 20260504185026 | 26 | 217 | 6.4 | 12.9 | 0.00 | 0.00 | 0.00 | 37 | 1011.2 |
| 20260504184025 | 25 | 230 | 8.0 | 14.5 | 0.00 | 0.00 | 0.00 | 38 | 1011.3 |
| 20260504183023 | 25 | 220 | 8.0 | 16.1 | 0.00 | 0.00 | 0.00 | 38 | 1011.5 |
| 20260504182021 | 25 | 217 | 8.0 | 16.1 | 0.00 | 0.00 | 0.00 | 38 | 1011.7 |
| 20260504181017 | 25 | 246 | 8.0 | 14.5 | 0.00 | 0.00 | 0.00 | 39 | 1011.7 |
| 20260504180035 | 25 | 238 | 8.0 | 17.7 | 0.00 | 0.00 | 0.00 | 39 | 1011.7 |
| 20260504175033 | 25 | 227 | 9.7 | 17.7 | 0.00 | 0.00 | 0.00 | 40 | 1011.9 |
| 20260504174032 | 25 | 225 | 8.0 | 12.9 | 0.00 | 0.00 | 0.00 | 42 | 1012.1 |
| 20260504173029 | 25 | 219 | 6.4 | 9.7 | 0.00 | 0.00 | 0.00 | 43 | 1012.1 |
| 20260504172028 | 25 | 230 | 8.0 | 20.9 | 0.00 | 0.00 | 0.00 | 42 | 1012.3 |
| 20260504171026 | 24 | 220 | 4.8 | 6.4 | 0.00 | 0.00 | 0.00 | 44 | 1012.4 |
| 20260504160108 | 23 | 233 | 8.0 | 17.7 | 0.00 | 0.00 | 0.00 | 50 | 1013.3 |
| 20260504151018 | 21 | 242 | 4.8 | 11.3 | 0.00 | 0.00 | 0.00 | 56 | 1013.6 |
| 20260504141025 | 20 | 236 | 6.4 | 12.9 | 0.00 | 0.00 | 0.00 | 60 | 1013.7 |
| 20260504120115 | 16 | 261 | 0.0 | 3.2 | 0.00 | 0.00 | 0.00 | 71 | 1013.1 |
| 20260504081024 | 16 | 256 | 1.6 | 4.8 | 0.00 | 0.00 | 0.00 | 62 | 1013.1 |
| 20260504050022 | 16 | 234 | 1.6 | 3.2 | 0.00 | 0.00 | 0.00 | 59 | 1014.8 |
| 20260504045019 | 16 | 252 | 1.6 | 3.2 | 0.00 | 0.00 | 0.00 | 59 | 1014.8 |
| 20260504044019 | 16 | 250 | 1.6 | 3.2 | 0.00 | 0.00 | 0.00 | 58 | 1014.8 |
| 20260504043035 | 16 | 241 | 1.6 | 3.2 | 0.00 | 0.00 | 0.00 | 58 | 1014.8 |
| 20260504042053 | 16 | 246 | 1.6 | 3.2 | 0.00 | 0.00 | 0.00 | 58 | 1014.7 |
| 20260504041030 | 16 | 279 | 1.6 | 3.2 | 0.00 | 0.00 | 0.00 | 58 | 1014.6 |
| 20260504040027 | 16 | 261 | 1.6 | 1.6 | 0.00 | 0.00 | 0.00 | 59 | 1014.8 |
| 20260504035025 | 16 | 0.0 | 0.0 | 0.00 | 0.00 | 0.00 | 59 | 1014.9 | |
| 20260504034024 | 16 | 0.0 | 0.0 | 0.00 | 0.00 | 0.00 | 59 | 1014.8 | |
| 20260504033020 | 16 | 0.0 | 0.0 | 0.00 | 0.00 | 0.00 | 58 | 1014.9 | |
| 20260504032018 | 16 | 0.0 | 0.0 | 0.00 | 0.00 | 0.00 | 58 | 1015.1 | |
| 20260504031016 | 17 | 0.0 | 0.0 | 0.00 | 0.00 | 0.00 | 56 | 1015.2 | |
| 20260504030038 | 17 | 0.0 | 0.0 | 0.00 | 0.00 | 0.00 | 54 | 1015.1 | |
| 20260504025035 | 17 | 0.0 | 0.0 | 0.00 | 0.00 | 0.00 | 53 | 1015.2 | |
| 20260504024030 | 17 | 0.0 | 0.0 | 0.00 | 0.00 | 0.00 | 52 | 1015.0 | |
| 20260504023108 | 17 | 0.0 | 0.0 | 0.00 | 0.00 | 0.00 | 52 | 1014.9 | |
| 20260504022045 | 17 | 0.0 | 0.0 | 0.00 | 0.00 | 0.00 | 52 | 1014.9 | |
| 20260504021034 | 18 | 0.0 | 0.0 | 0.00 | 0.00 | 0.00 | 49 | 1014.7 | |
| 20260504020020 | 18 | 0.0 | 0.0 | 0.00 | 0.00 | 0.00 | 48 | 1014.8 | |
| 20260504015018 | 18 | 0.0 | 0.0 | 0.00 | 0.00 | 0.00 | 45 | 1014.6 | |
| 20260504014018 | 19 | 0.0 | 0.0 | 0.00 | 0.00 | 0.00 | 44 | 1014.5 | |
| 20260504013034 | 20 | 0.0 | 0.0 | 0.00 | 0.00 | 0.00 | 43 | 1014.5 | |
| 20260504012033 | 20 | 0.0 | 0.0 | 0.00 | 0.00 | 0.00 | 41 | 1014.5 |